Etusivu
METAR-TAF:

METAR-TAF

Lentoasemat :

Teheran, Iran

Leveyspiiri: 35-41N, Pituuspiiri: 051-21E, korkeus merenpinnasta: 1204 m

Tämänhetkinen sää

Tämä raportti tehtiin 32 minuuttia sitten, kello 09.30 UTC
tyyntä
Lämpötila 22°C
Kosteus 13%
Ilmanpaine 1015 hPa
Näkyvyys 10 km tai enemmän
ei pilviä alle 1500 m:ssä eikä cumulonimbus-pilviä

METAR: OIII 220930Z 00000KT CAVOK 22/M08 Q1015 A2998 NOSIG

Aika: 13:32 (10:02 UTC)

Sääennuste

Tämä raportti tehtiin 4 tuntia ja 32 minuuttia sitten, kello 05.30 UTC
Ennuste voimassa 22. päivästä klo 06 UTC - 23. päivään klo 12 UTC
Tuuli 6 kn luoteesta
Näkyvyys: 8000 m
Ajoittain
23. päivästä klo 08 UTC - 23. päivään klo 12 UTC
Tuuli 14 kn lännestä

TAF: OIII 220530Z 2206/2312 32003MPS 8000 NSC TEMPO 2308/2312 26007MPS

Säähavainnot ja -ennusteet yli 4000 lentoasemalta (METAR- ja TAF-raportit).

Käytössä olevat sääasemat on merkitty karttaan keltaisilla ja punaisilla pisteillä.

Aseta hiiri pisteen päälle nähdäksesi sääaseman nimen.

Klikkaa sitten nähdäksesi säähavainnot ja -ennusteet.

Kartan vaihtaminen: klikkaa mustalla rastilla varustettuja vihreitä pisteitä, niin voit zoomata sisään; viivalla varustettua vihreää pistettä, niin voit zoomata ulos tai vihreitä nuolia, niin pääset viereisille kartoille.


METAR-TAF: